Time;durP1;ratioP1;P1;durP2;ratioP2;P2;SDS_P1;SDS_P2;PMS_P1;PMS_P2;Temp;Humidity;BMP_temperature;BMP_pressure;BME280_temperature;BME280_humidity;BME280_pressure;Samples;Min_cycle;Max_cycle;Signal;HPM_P1;HPM_P2
2021/12/02 00:01:35;;;;;;;1.42;0.52;;;6.60;69.00;;;;;;5027873;28;20064;-79
2021/12/02 00:04:02;;;;;;;1.67;0.88;;;6.60;69.00;;;;;;5005904;28;20038;-75
2021/12/02 00:06:28;;;;;;;1.50;0.93;;;6.50;68.90;;;;;;4992201;28;20029;-83
2021/12/02 00:08:54;;;;;;;1.02;0.70;;;6.50;68.90;;;;;;4998966;28;20029;-86
2021/12/02 00:11:21;;;;;;;1.48;0.90;;;6.50;68.90;;;;;;5029515;28;20033;-81
2021/12/02 00:21:20;;;;;;;3.07;1.33;;;6.40;68.70;;;;;;5067598;28;20039;-73
2021/12/02 00:23:59;;;;;;;2.25;1.02;;;6.40;68.70;;;;;;5070561;28;20287;-76
2021/12/02 00:26:28;;;;;;;3.13;1.48;;;6.30;68.50;;;;;;5071921;28;20368;-77
2021/12/02 00:28:57;;;;;;;3.65;1.25;;;6.30;68.50;;;;;;5077211;28;20028;-75
2021/12/02 00:31:28;;;;;;;4.05;1.58;;;6.30;68.50;;;;;;5077588;28;20429;-74
2021/12/02 00:33:58;;;;;;;2.35;1.10;;;6.20;68.40;;;;;;5044364;28;20032;-74
2021/12/02 00:36:29;;;;;;;1.50;0.98;;;6.20;68.40;;;;;;5061244;28;20460;-73
2021/12/02 00:38:56;;;;;;;1.35;1.00;;;6.20;68.40;;;;;;5069743;28;20119;-73
2021/12/02 00:41:26;;;;;;;3.85;1.40;;;6.20;68.40;;;;;;5064409;28;20039;-72
2021/12/02 00:43:54;;;;;;;2.38;1.15;;;6.10;68.20;;;;;;5031238;28;20434;-78
2021/12/02 00:46:22;;;;;;;1.27;0.90;;;6.10;68.20;;;;;;5065563;28;20386;-74
2021/12/02 00:48:49;;;;;;;3.75;0.90;;;6.10;68.20;;;;;;5065997;28;20478;-77
2021/12/02 00:51:18;;;;;;;2.08;1.55;;;6.10;68.20;;;;;;5084647;28;20028;-78
2021/12/02 00:53:52;;;;;;;1.85;0.80;;;6.10;68.20;;;;;;5067930;28;20530;-77
2021/12/02 00:56:23;;;;;;;2.90;1.13;;;6.00;68.00;;;;;;5067763;28;20029;-74
2021/12/02 00:58:53;;;;;;;3.95;1.23;;;6.00;68.00;;;;;;5069178;28;20044;-75
2021/12/02 01:01:25;;;;;;;2.22;0.88;;;5.90;67.80;;;;;;5068044;28;20395;-77
2021/12/02 01:03:56;;;;;;;1.35;0.90;;;5.90;67.80;;;;;;5065633;28;20032;-76
2021/12/02 01:06:22;;;;;;;2.20;0.90;;;5.90;67.80;;;;;;5047820;28;20035;-74
2021/12/02 01:08:48;;;;;;;3.03;0.85;;;5.90;67.90;;;;;;5049006;28;20033;-75
2021/12/02 01:11:16;;;;;;;4.13;0.90;;;5.80;68.20;;;;;;5030841;28;20036;-75
2021/12/02 01:13:43;;;;;;;2.30;1.25;;;5.80;67.70;;;;;;5047101;28;20036;-72
2021/12/02 01:16:09;;;;;;;1.70;0.90;;;5.80;67.70;;;;;;5047243;28;20372;-73
2021/12/02 01:18:35;;;;;;;4.45;1.40;;;5.70;67.50;;;;;;5048757;28;20059;-74
2021/12/02 01:21:03;;;;;;;2.17;1.00;;;5.70;67.50;;;;;;5047354;28;20120;-73
2021/12/02 01:23:32;;;;;;;2.58;1.30;;;5.60;67.40;;;;;;5047630;28;20033;-74
2021/12/02 01:26:05;;;;;;;2.42;1.17;;;5.60;67.40;;;;;;5048316;28;20121;-74
2021/12/02 01:28:32;;;;;;;1.73;0.75;;;5.60;67.40;;;;;;5053476;28;20035;-74
2021/12/02 01:30:58;;;;;;;3.13;1.60;;;5.50;67.20;;;;;;5068521;28;20101;-73
2021/12/02 01:33:26;;;;;;;1.40;0.70;;;5.50;67.20;;;;;;5068056;28;20463;-74
2021/12/02 01:35:58;;;;;;;3.53;1.08;;;5.50;67.20;;;;;;5068420;28;20032;-73
2021/12/02 01:38:26;;;;;;;1.90;1.00;;;5.40;67.00;;;;;;5067833;28;20052;-74
2021/12/02 01:40:54;;;;;;;1.30;0.90;;;5.40;67.00;;;;;;5067776;28;20032;-75
2021/12/02 01:43:34;;;;;;;1.67;0.77;;;5.30;66.80;;;;;;5068309;28;20128;-76
2021/12/02 01:46:03;;;;;;;1.25;0.82;;;5.30;66.80;;;;;;5068186;28;20035;-76
2021/12/02 01:48:31;;;;;;;1.45;0.90;;;5.30;66.90;;;;;;5068342;28;20096;-75
2021/12/02 01:51:03;;;;;;;1.45;0.90;;;5.30;67.00;;;;;;5068063;28;20479;-74
2021/12/02 01:53:38;;;;;;;1.90;1.08;;;5.20;66.70;;;;;;5066668;28;20123;-74
2021/12/02 01:56:14;;;;;;;2.72;1.13;;;5.20;66.70;;;;;;5068255;28;20039;-75
2021/12/02 01:59:08;;;;;;;1.23;1.13;;;5.20;66.70;;;;;;5068025;28;20517;-73
2021/12/02 02:01:36;;;;;;;3.22;1.10;;;5.10;66.60;;;;;;5068560;28;20032;-73
2021/12/02 02:04:03;;;;;;;1.73;1.05;;;5.00;66.40;;;;;;5067701;28;20067;-72
2021/12/02 02:06:51;;;;;;;1.65;1.10;;;5.00;66.40;;;;;;5067188;28;20055;-74
2021/12/02 02:09:17;;;;;;;1.00;0.73;;;4.90;66.20;;;;;;5067361;28;20709;-72
2021/12/02 02:11:43;;;;;;;2.85;0.98;;;4.90;66.30;;;;;;5065949;28;20104;-79
2021/12/02 02:14:10;;;;;;;3.05;0.63;;;4.90;66.30;;;;;;5067426;28;20044;-78
2021/12/02 02:16:38;;;;;;;1.30;0.88;;;4.80;66.10;;;;;;5065961;28;20135;-81
2021/12/02 02:19:06;;;;;;;2.47;1.00;;;4.80;66.20;;;;;;5066167;28;20097;-75
2021/12/02 02:21:36;;;;;;;1.92;1.02;;;4.70;66.00;;;;;;5067324;28;20422;-73
2021/12/02 02:24:04;;;;;;;2.22;1.10;;;4.70;66.00;;;;;;5065614;28;20154;-72
2021/12/02 02:26:35;;;;;;;1.70;0.90;;;4.70;66.10;;;;;;5067422;28;20107;-73
2021/12/02 02:29:04;;;;;;;2.47;1.20;;;4.70;66.10;;;;;;5067213;28;20498;-78
2021/12/02 02:31:32;;;;;;;2.30;1.10;;;4.70;66.10;;;;;;5066952;22;20489;-92
2021/12/02 02:33:58;;;;;;;2.53;0.70;;;4.60;66.00;;;;;;5023198;28;20026;-78
2021/12/02 02:36:30;;;;;;;2.67;0.80;;;4.60;66.00;;;;;;5041427;28;20061;-73
2021/12/02 02:38:57;;;;;;;1.92;1.00;;;4.60;66.10;;;;;;5044892;28;20037;-73
2021/12/02 02:41:26;;;;;;;3.10;0.82;;;4.60;66.10;;;;;;5045760;28;20063;-72
2021/12/02 02:43:59;;;;;;;2.08;1.15;;;4.60;66.10;;;;;;5017498;28;20033;-73
2021/12/02 02:46:33;;;;;;;2.25;1.10;;;4.60;66.10;;;;;;5030861;28;20112;-83
2021/12/02 02:49:01;;;;;;;1.38;0.90;;;4.50;65.90;;;;;;5034978;28;20083;-79
2021/12/02 02:51:30;;;;;;;1.85;0.90;;;4.50;65.90;;;;;;5035462;28;20030;-94
2021/12/02 02:54:00;;;;;;;1.58;0.80;;;4.50;66.00;;;;;;5035332;28;20045;-83
2021/12/02 02:56:31;;;;;;;1.83;0.90;;;4.50;66.00;;;;;;5031730;28;20029;-76
2021/12/02 02:59:20;;;;;;;1.27;0.70;;;4.50;66.00;;;;;;5031791;28;20029;-73
2021/12/02 03:02:34;;;;;;;1.52;0.90;;;4.40;66.30;;;;;;5031826;28;20025;-73
2021/12/02 03:07:23;;;;;;;2.65;0.90;;;4.40;65.80;;;;;;5031647;28;20499;-74
2021/12/02 03:16:36;;;;;;;1.45;0.88;;;4.30;65.70;;;;;;5031992;28;20029;-73
2021/12/02 03:17:36;;;;;;;4.28;0.82;;;4.30;65.80;;;;;;5032497;28;20029;-77
2021/12/02 03:20:03;;;;;;;2.15;1.30;;;4.30;65.80;;;;;;5031926;28;20061;-84
2021/12/02 03:22:30;;;;;;;1.85;0.93;;;4.30;65.80;;;;;;5030839;28;20530;-79
2021/12/02 03:24:56;;;;;;;2.15;1.23;;;4.30;65.80;;;;;;5032657;28;20064;-74
2021/12/02 03:27:22;;;;;;;1.50;0.80;;;4.30;65.90;;;;;;5032418;28;20159;-82
2021/12/02 03:29:48;;;;;;;1.77;1.00;;;4.20;65.70;;;;;;5032156;28;20113;-82
2021/12/02 03:32:14;;;;;;;1.75;0.70;;;4.20;65.80;;;;;;5031619;28;20046;-79
2021/12/02 03:34:41;;;;;;;2.50;1.00;;;4.20;65.80;;;;;;5031616;28;20030;-72
2021/12/02 03:37:08;;;;;;;1.30;0.88;;;4.20;65.80;;;;;;5030731;28;20026;-72
2021/12/02 03:39:33;;;;;;;2.97;1.13;;;4.20;65.80;;;;;;5030770;28;20049;-75
2021/12/02 03:42:00;;;;;;;0.80;0.70;;;4.20;65.90;;;;;;5030852;28;20068;-83
2021/12/02 03:44:27;;;;;;;1.30;0.82;;;4.20;65.90;;;;;;5031835;28;20037;-80
2021/12/02 03:46:53;;;;;;;1.52;0.80;;;4.10;65.70;;;;;;5031578;28;20435;-72
2021/12/02 03:49:20;;;;;;;1.42;0.70;;;4.10;65.70;;;;;;5031766;28;20400;-72
2021/12/02 03:51:46;;;;;;;2.67;0.98;;;4.20;65.90;;;;;;5031527;28;20059;-86
2021/12/02 03:54:12;;;;;;;0.93;0.68;;;4.10;65.70;;;;;;5031453;28;20034;-74
2021/12/02 03:56:38;;;;;;;2.75;1.00;;;4.10;65.70;;;;;;5031848;28;20034;-75
2021/12/02 03:59:04;;;;;;;3.55;0.95;;;4.10;65.70;;;;;;5031707;28;20519;-73
2021/12/02 04:01:30;;;;;;;2.42;1.00;;;4.10;65.70;;;;;;5032083;28;20029;-78
2021/12/02 04:03:56;;;;;;;2.15;1.00;;;4.10;65.70;;;;;;5032206;28;20033;-90
2021/12/02 04:06:23;;;;;;;1.48;0.88;;;4.00;65.50;;;;;;5031284;28;20025;-91
2021/12/02 04:11:31;;;;;;;1.50;0.90;;;4.00;65.50;;;;;;5031587;28;20065;-83
2021/12/02 04:16:52;;;;;;;1.27;0.70;;;3.90;65.30;;;;;;5031369;28;20030;-74
2021/12/02 04:19:19;;;;;;;2.70;1.30;;;3.90;65.20;;;;;;5031095;28;20485;-79
2021/12/02 04:21:45;;;;;;;1.15;0.90;;;3.90;65.20;;;;;;5030119;28;20496;-72
2021/12/02 04:24:11;;;;;;;1.95;1.23;;;3.90;65.30;;;;;;5034895;28;20039;-72
2021/12/02 04:26:39;;;;;;;2.25;0.98;;;3.90;65.30;;;;;;5034531;28;20128;-73
2021/12/02 04:29:05;;;;;;;1.30;0.77;;;3.80;65.10;;;;;;5034997;28;20106;-73
2021/12/02 04:31:31;;;;;;;1.05;0.70;;;3.80;65.10;;;;;;5035330;28;20048;-77
2021/12/02 04:33:57;;;;;;;0.65;0.60;;;3.80;65.20;;;;;;5033184;28;20120;-79
2021/12/02 04:36:23;;;;;;;3.45;1.00;;;3.80;65.20;;;;;;5033272;28;20036;-82
2021/12/02 04:38:49;;;;;;;3.05;0.88;;;3.70;65.00;;;;;;5036968;28;20041;-79
2021/12/02 04:41:17;;;;;;;1.08;0.70;;;3.70;65.00;;;;;;5035391;28;20496;-90
2021/12/02 04:43:43;;;;;;;1.65;1.00;;;3.70;65.10;;;;;;5037817;28;20033;-82
2021/12/02 04:46:09;;;;;;;0.80;0.70;;;3.70;65.10;;;;;;5035590;28;20068;-74
2021/12/02 04:48:35;;;;;;;0.82;0.73;;;3.70;65.10;;;;;;5035692;28;20036;-88
2021/12/02 04:51:01;;;;;;;1.45;0.90;;;3.70;65.10;;;;;;5035290;28;20034;-77
2021/12/02 04:53:27;;;;;;;1.58;0.70;;;3.70;65.10;;;;;;5035102;28;20029;-79
2021/12/02 04:55:53;;;;;;;1.55;0.80;;;3.70;65.20;;;;;;5035300;28;20021;-77
2021/12/02 04:58:19;;;;;;;3.13;0.80;;;3.60;65.00;;;;;;5035079;28;20041;-76
2021/12/02 05:00:45;;;;;;;1.25;0.80;;;3.70;65.20;;;;;;5035176;28;20116;-92
2021/12/02 05:03:11;;;;;;;2.47;0.77;;;3.60;65.00;;;;;;5034527;28;20116;-76
2021/12/02 05:05:37;;;;;;;1.13;0.85;;;3.60;65.00;;;;;;5033704;28;20481;-72
2021/12/02 05:08:04;;;;;;;1.63;0.85;;;3.70;65.20;;;;;;5034967;28;20088;-79
2021/12/02 05:10:30;;;;;;;2.25;1.05;;;3.70;65.30;;;;;;5033192;28;20033;-72
2021/12/02 05:12:56;;;;;;;1.55;0.73;;;3.70;65.30;;;;;;5034535;28;20488;-82
2021/12/02 05:15:22;;;;;;;3.85;1.00;;;3.60;65.20;;;;;;5035828;28;20053;-77
2021/12/02 05:17:48;;;;;;;2.10;0.85;;;3.70;65.30;;;;;;5034555;28;20045;-71
2021/12/02 05:20:14;;;;;;;2.22;0.70;;;3.70;65.90;;;;;;5034483;28;20063;-71
2021/12/02 05:22:40;;;;;;;1.23;0.52;;;3.70;65.40;;;;;;5033340;28;20034;-80
2021/12/02 05:25:08;;;;;;;2.38;1.23;;;3.70;65.40;;;;;;5036190;28;20385;-76
2021/12/02 05:27:34;;;;;;;1.65;1.10;;;3.70;65.40;;;;;;5035491;28;20438;-85
2021/12/02 05:30:00;;;;;;;2.42;0.93;;;3.70;65.40;;;;;;5002494;28;20018;-82
2021/12/02 05:32:30;;;;;;;4.80;0.90;;;3.70;65.40;;;;;;5014949;28;20076;-73
2021/12/02 05:34:57;;;;;;;1.35;0.90;;;3.70;65.40;;;;;;5014030;28;20026;-73
2021/12/02 05:37:23;;;;;;;1.25;1.00;;;3.70;65.40;;;;;;5028076;28;20021;-86
2021/12/02 05:39:49;;;;;;;3.10;0.80;;;3.70;65.40;;;;;;5031301;28;20038;-77
2021/12/02 05:42:15;;;;;;;2.45;0.98;;;3.80;65.60;;;;;;5029097;28;20517;-71
2021/12/02 05:44:42;;;;;;;1.55;1.00;;;3.80;65.60;;;;;;5029556;28;20041;-73
2021/12/02 05:47:08;;;;;;;2.58;1.17;;;3.80;65.60;;;;;;5015249;28;20028;-76
2021/12/02 05:49:33;;;;;;;1.00;0.73;;;3.80;65.60;;;;;;5011192;28;20108;-80
2021/12/02 05:52:00;;;;;;;1.45;1.00;;;3.80;65.60;;;;;;5026649;28;20067;-84
2021/12/02 05:54:25;;;;;;;0.80;0.70;;;3.80;65.60;;;;;;5030351;28;20029;-84
2021/12/02 05:56:51;;;;;;;1.35;0.90;;;3.90;65.80;;;;;;5030360;28;20060;-81
2021/12/02 05:59:17;;;;;;;4.32;1.35;;;3.90;65.70;;;;;;5030036;28;20045;-85
2021/12/02 06:01:43;;;;;;;2.60;1.00;;;3.90;65.70;;;;;;5010261;28;20137;-84
2021/12/02 06:04:10;;;;;;;2.58;1.20;;;3.90;65.70;;;;;;5013564;28;20053;-82
2021/12/02 06:06:36;;;;;;;1.20;0.98;;;3.90;65.70;;;;;;5037603;28;20048;-88
2021/12/02 06:09:04;;;;;;;1.60;0.70;;;3.90;65.70;;;;;;5029956;28;20018;-87
2021/12/02 06:11:30;;;;;;;1.15;0.90;;;4.00;65.80;;;;;;5008994;28;20080;-88
2021/12/02 06:13:56;;;;;;;2.22;1.33;;;3.90;65.60;;;;;;5019276;28;20030;-83
2021/12/02 06:16:22;;;;;;;1.98;1.13;;;4.00;65.80;;;;;;5028973;28;20095;-90
2021/12/02 06:18:49;;;;;;;2.20;0.90;;;4.00;65.70;;;;;;5028191;28;20044;-88
2021/12/02 06:21:15;;;;;;;1.85;1.15;;;4.00;65.70;;;;;;5027875;28;20033;-86
2021/12/02 06:23:41;;;;;;;1.63;1.00;;;4.00;65.70;;;;;;5027693;28;20029;-79
2021/12/02 06:26:08;;;;;;;1.20;0.93;;;4.00;65.70;;;;;;5027440;28;20033;-72
2021/12/02 06:28:34;;;;;;;2.47;1.15;;;4.00;65.70;;;;;;5027682;28;20083;-77
2021/12/02 06:31:03;;;;;;;2.33;1.20;;;4.00;65.70;;;;;;5027353;28;20033;-75
2021/12/02 06:33:30;;;;;;;2.88;1.35;;;4.00;65.70;;;;;;5027638;28;20523;-87
2021/12/02 06:35:56;;;;;;;1.08;0.98;;;4.00;65.70;;;;;;5026679;28;20034;-81
2021/12/02 06:38:23;;;;;;;1.70;1.00;;;4.00;65.60;;;;;;5024520;28;20056;-85
2021/12/02 06:40:49;;;;;;;0.93;0.80;;;4.00;65.60;;;;;;5016759;28;20025;-85
2021/12/02 06:43:16;;;;;;;1.90;1.13;;;4.00;65.60;;;;;;5015478;28;20402;-85
2021/12/02 06:45:42;;;;;;;1.80;1.05;;;4.00;65.60;;;;;;5016949;28;20043;-80
2021/12/02 06:48:09;;;;;;;1.58;1.17;;;4.00;65.60;;;;;;5018263;28;20072;-86
2021/12/02 06:50:36;;;;;;;3.50;1.10;;;4.10;65.80;;;;;;5018489;28;20417;-84
2021/12/02 06:53:04;;;;;;;1.90;1.00;;;4.10;65.80;;;;;;5017987;28;20494;-78
2021/12/02 06:55:31;;;;;;;1.52;1.15;;;4.10;65.80;;;;;;5034801;28;20033;-85
2021/12/02 06:57:57;;;;;;;2.03;1.20;;;4.10;65.80;;;;;;5016062;28;20030;-72
2021/12/02 07:00:23;;;;;;;1.80;1.10;;;4.10;65.80;;;;;;5016670;28;20541;-89
2021/12/02 07:02:54;;;;;;;1.00;0.93;;;4.10;65.70;;;;;;5000572;28;20026;-88
2021/12/02 07:05:21;;;;;;;1.60;1.40;;;4.10;65.70;;;;;;5030549;28;20056;-77
2021/12/02 07:07:47;;;;;;;1.52;1.08;;;4.10;65.70;;;;;;5023624;28;20034;-83
2021/12/02 07:10:21;;;;;;;2.05;1.08;;;4.10;65.70;;;;;;5016980;28;20018;-77
2021/12/02 07:12:50;;;;;;;2.83;1.10;;;4.10;65.70;;;;;;5007718;28;20037;-82
2021/12/02 07:15:20;;;;;;;1.38;1.05;;;4.20;65.80;;;;;;5025454;28;20042;-80
2021/12/02 07:17:55;;;;;;;2.03;1.20;;;4.20;65.80;;;;;;5025892;28;20415;-82
2021/12/02 07:20:22;;;;;;;1.27;1.10;;;4.20;65.80;;;;;;5027825;28;20557;-80
2021/12/02 07:22:48;;;;;;;3.22;1.20;;;4.20;65.80;;;;;;5020585;28;20037;-85
2021/12/02 07:25:14;;;;;;;3.63;1.23;;;4.20;65.80;;;;;;5008758;28;20440;-75
2021/12/02 07:27:42;;;;;;;2.67;1.30;;;4.20;65.90;;;;;;5008048;28;20033;-89
2021/12/02 07:30:09;;;;;;;7.20;2.45;;;4.20;65.90;;;;;;5006365;28;20037;-76
2021/12/02 07:32:37;;;;;;;2.83;1.20;;;4.30;66.30;;;;;;5013977;28;20382;-76
2021/12/02 07:35:12;;;;;;;4.45;1.25;;;4.30;66.50;;;;;;5027887;28;20119;-85
2021/12/02 07:37:50;;;;;;;2.78;1.20;;;4.40;66.80;;;;;;5020630;28;20037;-85
2021/12/02 07:40:17;;;;;;;3.25;1.20;;;4.40;66.80;;;;;;5023420;28;20037;-89
2021/12/02 07:42:49;;;;;;;3.20;1.50;;;4.50;67.00;;;;;;5019159;28;20026;-76
2021/12/02 07:45:16;;;;;;;2.65;1.65;;;4.50;67.00;;;;;;5013696;28;20339;-78
2021/12/02 07:47:42;;;;;;;3.03;0.85;;;4.50;67.00;;;;;;5017856;28;20029;-77
2021/12/02 07:50:11;;;;;;;2.47;1.02;;;4.50;67.00;;;;;;5020512;28;20069;-83
2021/12/02 07:52:46;;;;;;;2.78;1.05;;;4.60;67.20;;;;;;5011628;28;20048;-74
2021/12/02 07:55:15;;;;;;;1.38;0.93;;;4.60;67.10;;;;;;5004394;28;20055;-84
2021/12/02 07:57:44;;;;;;;2.70;0.98;;;4.60;67.10;;;;;;5003485;28;20446;-87
2021/12/02 08:00:16;;;;;;;1.05;0.75;;;4.60;67.00;;;;;;4993104;28;20030;-78
2021/12/02 08:02:46;;;;;;;2.05;0.80;;;4.60;67.00;;;;;;5015360;28;20034;-75
2021/12/02 08:05:13;;;;;;;1.88;0.93;;;4.60;67.00;;;;;;5020623;28;20021;-87
2021/12/02 08:07:41;;;;;;;3.40;1.23;;;4.70;67.10;;;;;;5018739;28;20131;-75
2021/12/02 08:10:10;;;;;;;2.40;1.00;;;4.70;67.10;;;;;;5017928;28;20053;-90
2021/12/02 08:12:37;;;;;;;1.90;1.00;;;4.70;67.10;;;;;;5018971;28;20033;-78
2021/12/02 08:15:06;;;;;;;3.35;0.90;;;4.70;67.00;;;;;;5027158;28;20037;-77
2021/12/02 08:17:32;;;;;;;2.03;1.05;;;4.70;67.00;;;;;;5023132;28;20540;-81
2021/12/02 08:19:58;;;;;;;2.70;1.13;;;4.70;67.00;;;;;;5018466;28;20121;-82
2021/12/02 08:22:24;;;;;;;2.83;2.03;;;4.70;67.00;;;;;;5012910;28;20515;-89
2021/12/02 08:24:50;;;;;;;2.72;1.17;;;4.70;67.00;;;;;;5016908;28;20034;-84
2021/12/02 08:27:16;;;;;;;1.27;0.70;;;4.70;67.00;;;;;;5032314;28;20026;-80
2021/12/02 08:29:42;;;;;;;3.50;1.10;;;4.80;67.10;;;;;;5018622;28;20116;-95
2021/12/02 08:32:09;;;;;;;3.75;1.40;;;4.70;66.90;;;;;;5009807;28;20260;-81
2021/12/02 08:34:35;;;;;;;3.38;1.20;;;4.70;66.90;;;;;;4988988;28;20033;-89
2021/12/02 08:37:01;;;;;;;1.38;0.80;;;4.80;67.00;;;;;;5008017;28;20430;-85
2021/12/02 08:39:29;;;;;;;1.58;1.00;;;4.80;67.00;;;;;;5011996;28;20084;-81
2021/12/02 08:41:55;;;;;;;1.23;0.75;;;4.80;66.90;;;;;;5008937;28;20038;-92
2021/12/02 08:44:24;;;;;;;0.95;0.60;;;4.80;66.90;;;;;;5008901;28;20042;-80
2021/12/02 08:46:51;;;;;;;2.35;0.70;;;4.80;66.90;;;;;;5006456;28;20108;-88
2021/12/02 08:49:18;;;;;;;2.40;0.80;;;4.90;67.10;;;;;;5005807;28;20034;-78
2021/12/02 08:51:45;;;;;;;2.65;0.90;;;4.90;67.00;;;;;;5006165;28;20041;-74
2021/12/02 08:54:15;;;;;;;1.30;0.88;;;4.90;66.90;;;;;;5004947;28;20092;-78
2021/12/02 08:56:41;;;;;;;3.10;0.70;;;4.90;66.90;;;;;;5006571;28;20026;-84
2021/12/02 08:59:07;;;;;;;2.10;0.82;;;5.00;67.00;;;;;;5005385;28;20037;-79
2021/12/02 09:01:34;;;;;;;2.50;0.82;;;5.00;66.90;;;;;;5005725;28;20481;-83
2021/12/02 09:04:04;;;;;;;2.72;1.08;;;5.00;66.90;;;;;;5009570;28;20434;-76
2021/12/02 09:06:31;;;;;;;1.63;0.57;;;5.00;66.80;;;;;;5004965;28;20022;-89
2021/12/02 09:08:58;;;;;;;3.10;0.60;;;5.10;67.00;;;;;;5019003;28;20052;-80
2021/12/02 09:11:29;;;;;;;2.42;1.10;;;5.10;66.90;;;;;;5028171;28;20091;-87
2021/12/02 09:13:59;;;;;;;0.77;0.60;;;5.10;66.90;;;;;;5028636;28;20033;-81
2021/12/02 09:16:29;;;;;;;2.17;0.82;;;5.10;66.80;;;;;;5028885;28;20534;-78
2021/12/02 09:18:56;;;;;;;1.17;0.82;;;5.10;66.80;;;;;;5029344;28;20489;-73
2021/12/02 09:21:23;;;;;;;0.82;0.60;;;5.20;66.90;;;;;;5029499;28;20384;-76
2021/12/02 09:23:50;;;;;;;1.90;0.75;;;5.20;66.90;;;;;;5028822;28;20493;-79
2021/12/02 09:26:16;;;;;;;1.63;0.63;;;5.20;66.80;;;;;;5029321;28;20089;-78
2021/12/02 09:28:42;;;;;;;2.25;0.80;;;5.20;66.80;;;;;;5027646;28;20052;-79
2021/12/02 09:31:08;;;;;;;3.13;0.75;;;5.30;66.90;;;;;;5044352;28;20041;-76
2021/12/02 09:33:34;;;;;;;1.48;0.70;;;5.30;66.80;;;;;;5029370;28;20508;-80
2021/12/02 09:36:00;;;;;;;2.33;0.68;;;5.30;66.80;;;;;;5028396;28;20033;-77
2021/12/02 09:38:26;;;;;;;1.45;0.47;;;5.30;66.70;;;;;;5027079;28;20040;-74
2021/12/02 09:40:52;;;;;;;3.10;1.00;;;5.40;66.80;;;;;;5028661;28;20030;-80
2021/12/02 09:43:18;;;;;;;1.80;0.70;;;5.40;66.80;;;;;;5028849;28;20325;-77
2021/12/02 09:45:45;;;;;;;1.95;0.50;;;5.40;66.70;;;;;;5027865;28;20102;-80
2021/12/02 09:48:13;;;;;;;2.92;0.70;;;5.50;67.40;;;;;;5030916;28;20034;-78
2021/12/02 09:50:52;;;;;;;2.83;1.13;;;5.50;66.80;;;;;;5025593;28;20134;-78
2021/12/02 09:53:22;;;;;;;3.95;0.60;;;5.50;67.00;;;;;;5030404;28;20482;-81
2021/12/02 09:55:55;;;;;;;1.48;0.70;;;5.60;67.40;;;;;;5008582;28;20033;-78
2021/12/02 09:58:24;;;;;;;2.45;0.50;;;5.70;67.80;;;;;;5031196;28;20045;-76
2021/12/02 10:00:59;;;;;;;3.15;0.60;;;5.80;67.90;;;;;;5026892;28;20120;-76
2021/12/02 10:03:33;;;;;;;2.03;0.60;;;5.80;67.80;;;;;;5028005;28;20124;-83
2021/12/02 10:06:09;;;;;;;2.33;0.75;;;5.90;67.90;;;;;;5017163;28;20037;-76
2021/12/02 10:08:53;;;;;;;1.45;0.55;;;5.90;67.80;;;;;;5021556;28;20033;-82
2021/12/02 10:11:45;;;;;;;1.65;0.65;;;5.90;67.80;;;;;;5021702;28;20026;-80
2021/12/02 10:14:36;;;;;;;1.85;0.60;;;6.00;67.80;;;;;;5023963;28;20033;-78
2021/12/02 10:17:08;;;;;;;0.88;0.50;;;6.00;67.80;;;;;;5011715;28;20040;-77
2021/12/02 10:19:34;;;;;;;3.40;1.20;;;6.00;67.80;;;;;;5028074;28;20041;-89
2021/12/02 10:22:11;;;;;;;1.58;0.50;;;6.00;67.70;;;;;;5028535;28;20527;-86
2021/12/02 10:24:43;;;;;;;0.52;0.28;;;6.00;67.60;;;;;;5014236;28;20036;-83
2021/12/02 10:27:10;;;;;;;3.53;0.73;;;6.00;67.60;;;;;;5011887;28;20066;-81
2021/12/02 10:29:39;;;;;;;1.80;0.55;;;6.00;67.50;;;;;;5015811;28;20033;-82
2021/12/02 10:32:20;;;;;;;1.20;0.40;;;6.10;67.60;;;;;;5024444;28;20113;-78
2021/12/02 10:34:55;;;;;;;0.47;0.40;;;6.10;67.60;;;;;;5022654;28;20319;-75
2021/12/02 10:37:26;;;;;;;0.93;0.40;;;6.10;67.50;;;;;;5008046;28;20096;-77
2021/12/02 10:39:57;;;;;;;1.50;0.60;;;6.10;67.40;;;;;;5006078;28;20038;-79
2021/12/02 10:42:23;;;;;;;0.95;0.40;;;6.10;67.40;;;;;;5007459;28;20068;-74
2021/12/02 10:44:50;;;;;;;1.00;0.32;;;6.10;67.30;;;;;;5038182;28;20084;-80
2021/12/02 10:47:17;;;;;;;2.28;0.52;;;6.20;67.40;;;;;;5013907;28;20026;-75
2021/12/02 10:49:49;;;;;;;2.60;0.75;;;6.20;67.30;;;;;;5009506;28;20029;-76
2021/12/02 10:52:21;;;;;;;2.03;1.52;;;6.20;67.20;;;;;;5010287;28;20390;-74
2021/12/02 10:54:52;;;;;;;2.00;0.40;;;6.20;67.10;;;;;;5025333;28;20201;-75
2021/12/02 10:57:23;;;;;;;0.80;0.50;;;6.30;67.20;;;;;;5027146;28;20420;-74
2021/12/02 10:59:57;;;;;;;1.13;0.55;;;6.30;67.10;;;;;;5007070;28;20049;-74
2021/12/02 11:02:26;;;;;;;0.95;0.40;;;6.30;67.10;;;;;;5006987;28;20025;-75
2021/12/02 11:05:05;;;;;;;3.13;0.40;;;6.30;67.00;;;;;;5005166;28;20497;-73
2021/12/02 11:07:39;;;;;;;0.70;0.40;;;6.30;66.90;;;;;;5006368;28;20186;-73
2021/12/02 11:10:12;;;;;;;1.08;0.55;;;6.40;67.00;;;;;;5005158;28;20030;-76
2021/12/02 11:12:44;;;;;;;0.95;0.63;;;6.40;67.00;;;;;;5006928;28;20033;-81
2021/12/02 11:15:13;;;;;;;2.17;0.70;;;6.40;66.90;;;;;;5006335;28;20033;-78
2021/12/02 11:17:41;;;;;;;1.27;0.50;;;6.50;67.00;;;;;;5006654;28;20026;-77
2021/12/02 11:20:11;;;;;;;1.23;0.52;;;6.40;66.70;;;;;;5006283;28;20053;-74
2021/12/02 11:22:37;;;;;;;1.85;0.60;;;6.50;66.80;;;;;;5006524;28;20026;-75
2021/12/02 11:25:07;;;;;;;0.90;0.38;;;6.50;67.30;;;;;;5005989;28;20034;-77
2021/12/02 11:27:38;;;;;;;2.40;0.90;;;6.50;66.60;;;;;;5006362;28;20029;-79
2021/12/02 11:30:15;;;;;;;0.90;0.32;;;6.50;66.60;;;;;;5024600;28;20102;-81
2021/12/02 11:32:59;;;;;;;2.78;0.65;;;6.50;66.50;;;;;;5025690;28;20080;-77
2021/12/02 11:35:40;;;;;;;1.65;0.55;;;6.60;66.60;;;;;;5006848;28;20388;-77
2021/12/02 11:38:08;;;;;;;1.85;0.40;;;6.60;66.50;;;;;;5006406;28;20038;-77
2021/12/02 11:40:38;;;;;;;1.33;0.47;;;6.60;66.50;;;;;;5006673;28;20084;-74
2021/12/02 11:43:05;;;;;;;1.30;0.35;;;6.60;66.40;;;;;;5004651;28;20088;-73
2021/12/02 11:45:35;;;;;;;2.40;0.60;;;6.70;66.50;;;;;;4988312;28;20133;-73
2021/12/02 11:48:02;;;;;;;0.75;0.40;;;6.70;66.30;;;;;;5004601;28;20120;-74
2021/12/02 11:50:29;;;;;;;1.50;0.50;;;6.70;66.30;;;;;;5005818;28;20367;-73
2021/12/02 11:52:55;;;;;;;2.22;0.60;;;6.80;66.40;;;;;;5005680;28;20026;-77
2021/12/02 11:55:26;;;;;;;0.50;0.30;;;6.70;66.10;;;;;;5005978;28;20061;-76
2021/12/02 11:57:52;;;;;;;1.55;0.40;;;6.80;66.20;;;;;;4987992;28;20050;-74
2021/12/02 12:00:21;;;;;;;0.50;0.25;;;6.80;66.10;;;;;;5006803;28;20070;-74
2021/12/02 12:03:12;;;;;;;1.77;0.47;;;6.80;66.00;;;;;;5004755;28;20050;-73
2021/12/02 12:05:52;;;;;;;1.38;0.45;;;6.80;66.00;;;;;;5006894;28;20095;-82
2021/12/02 12:08:32;;;;;;;0.50;0.45;;;6.80;65.90;;;;;;5012709;28;20111;-81
2021/12/02 12:11:28;;;;;;;1.15;0.68;;;6.90;66.00;;;;;;5025566;28;20128;-79
2021/12/02 12:13:58;;;;;;;1.17;0.50;;;6.90;65.90;;;;;;5013669;28;20100;-78
2021/12/02 12:16:26;;;;;;;1.65;0.90;;;6.90;65.90;;;;;;5005640;28;20191;-77
2021/12/02 12:18:54;;;;;;;1.83;0.40;;;6.90;65.90;;;;;;5005658;28;20164;-77
2021/12/02 12:21:38;;;;;;;1.33;0.40;;;6.90;65.80;;;;;;5006109;28;20026;-84
2021/12/02 12:24:04;;;;;;;0.68;0.30;;;7.00;65.90;;;;;;5005968;28;20061;-76
2021/12/02 12:26:31;;;;;;;1.80;0.30;;;7.00;65.90;;;;;;5011788;28;20428;-77
2021/12/02 12:29:16;;;;;;;1.73;0.50;;;7.00;65.80;;;;;;5013664;28;20037;-80
2021/12/02 12:31:55;;;;;;;3.15;0.88;;;7.00;65.70;;;;;;5021364;28;20041;-75
2021/12/02 12:40:07;;;;;;;3.33;0.70;;;7.20;66.70;;;;;;5006016;28;20054;-76
2021/12/02 12:42:36;;;;;;;2.00;0.50;;;7.20;66.70;;;;;;5014550;28;20612;-77
2021/12/02 12:45:04;;;;;;;3.28;0.63;;;7.20;66.70;;;;;;5013366;28;20038;-85
2021/12/02 12:47:52;;;;;;;1.20;0.55;;;7.30;66.80;;;;;;5009345;28;20068;-82
2021/12/02 12:50:33;;;;;;;3.65;0.77;;;7.30;66.70;;;;;;5022007;28;20037;-76
2021/12/02 12:53:07;;;;;;;2.47;0.63;;;7.30;66.60;;;;;;5023199;28;20122;-75
2021/12/02 12:56:05;;;;;;;1.48;0.50;;;7.30;66.60;;;;;;5009614;28;20046;-77
2021/12/02 12:58:34;;;;;;;4.70;0.60;;;7.30;66.60;;;;;;5006399;28;20037;-79
2021/12/02 13:01:02;;;;;;;2.22;0.47;;;7.40;66.70;;;;;;5015235;28;20498;-75
2021/12/02 13:03:33;;;;;;;1.60;0.70;;;7.30;66.40;;;;;;5018198;28;20651;-80
2021/12/02 13:06:11;;;;;;;2.15;0.68;;;7.40;66.50;;;;;;5018796;28;20029;-77
2021/12/02 13:08:54;;;;;;;2.15;0.50;;;7.40;66.50;;;;;;5011725;28;20026;-80
2021/12/02 13:11:24;;;;;;;1.73;0.47;;;7.40;66.40;;;;;;5021681;28;20025;-84
2021/12/02 13:13:52;;;;;;;0.85;0.45;;;7.40;66.40;;;;;;5019451;28;20034;-74
2021/12/02 13:16:20;;;;;;;3.00;0.55;;;7.40;66.30;;;;;;5020358;28;20090;-80
2021/12/02 13:19:04;;;;;;;2.17;0.70;;;7.40;66.20;;;;;;5028854;28;20519;-84
2021/12/02 13:21:34;;;;;;;0.85;0.57;;;7.40;66.20;;;;;;5029388;28;20531;-87
2021/12/02 13:24:00;;;;;;;3.13;0.50;;;7.40;66.10;;;;;;5020262;28;20608;-82
2021/12/02 13:26:29;;;;;;;2.72;0.50;;;7.40;66.00;;;;;;5008699;28;20033;-92
2021/12/02 13:29:06;;;;;;;1.73;0.50;;;7.40;66.00;;;;;;5014350;28;20116;-82
2021/12/02 13:31:35;;;;;;;1.25;0.40;;;7.40;65.90;;;;;;5019202;28;20046;-76
2021/12/02 13:34:03;;;;;;;1.02;0.52;;;7.40;65.90;;;;;;5025780;28;20422;-84
2021/12/02 13:36:34;;;;;;;2.15;0.50;;;7.40;65.80;;;;;;5020999;28;20116;-77